sensor_id;sensor_type;location;lat;lon;timestamp;P1;durP1;ratioP1;P2;durP2;ratioP2
58137;SDS011;43955;47.362;18.930;2024-02-26T00:00:18;18.58;;;11.05;;
58137;SDS011;43955;47.362;18.930;2024-02-26T00:02:46;22.73;;;11.02;;
58137;SDS011;43955;47.362;18.930;2024-02-26T00:05:14;18.33;;;10.88;;
58137;SDS011;43955;47.362;18.930;2024-02-26T00:07:42;16.12;;;10.35;;
58137;SDS011;43955;47.362;18.930;2024-02-26T00:10:10;21.20;;;11.38;;
58137;SDS011;43955;47.362;18.930;2024-02-26T00:12:38;17.12;;;10.35;;
58137;SDS011;43955;47.362;18.930;2024-02-26T00:15:08;19.30;;;10.38;;
58137;SDS011;43955;47.362;18.930;2024-02-26T00:17:36;16.98;;;9.50;;
58137;SDS011;43955;47.362;18.930;2024-02-26T00:20:05;18.62;;;11.43;;
58137;SDS011;43955;47.362;18.930;2024-02-26T00:22:36;17.42;;;10.10;;
58137;SDS011;43955;47.362;18.930;2024-02-26T00:25:04;16.85;;;10.50;;
58137;SDS011;43955;47.362;18.930;2024-02-26T00:27:32;15.60;;;10.32;;
58137;SDS011;43955;47.362;18.930;2024-02-26T00:30:00;18.98;;;10.43;;
58137;SDS011;43955;47.362;18.930;2024-02-26T00:32:27;20.00;;;10.98;;
58137;SDS011;43955;47.362;18.930;2024-02-26T00:34:55;18.87;;;10.20;;
58137;SDS011;43955;47.362;18.930;2024-02-26T00:37:23;17.27;;;10.35;;
58137;SDS011;43955;47.362;18.930;2024-02-26T00:39:51;16.00;;;10.18;;
58137;SDS011;43955;47.362;18.930;2024-02-26T00:42:23;16.73;;;8.98;;
58137;SDS011;43955;47.362;18.930;2024-02-26T00:44:51;15.02;;;8.88;;
58137;SDS011;43955;47.362;18.930;2024-02-26T00:47:18;16.45;;;8.90;;
58137;SDS011;43955;47.362;18.930;2024-02-26T00:49:46;17.00;;;9.10;;
58137;SDS011;43955;47.362;18.930;2024-02-26T00:52:14;16.65;;;10.18;;
58137;SDS011;43955;47.362;18.930;2024-02-26T00:54:41;13.82;;;8.80;;
58137;SDS011;43955;47.362;18.930;2024-02-26T00:57:09;18.35;;;10.57;;
58137;SDS011;43955;47.362;18.930;2024-02-26T00:59:37;17.02;;;9.57;;
58137;SDS011;43955;47.362;18.930;2024-02-26T01:02:04;15.85;;;9.55;;
58137;SDS011;43955;47.362;18.930;2024-02-26T01:04:34;13.85;;;9.10;;
58137;SDS011;43955;47.362;18.930;2024-02-26T01:07:02;15.65;;;9.60;;
58137;SDS011;43955;47.362;18.930;2024-02-26T01:09:30;17.30;;;9.20;;
58137;SDS011;43955;47.362;18.930;2024-02-26T01:12:00;17.75;;;10.02;;
58137;SDS011;43955;47.362;18.930;2024-02-26T01:14:30;17.50;;;9.38;;
58137;SDS011;43955;47.362;18.930;2024-02-26T01:16:57;15.68;;;9.13;;
58137;SDS011;43955;47.362;18.930;2024-02-26T01:19:25;15.05;;;9.48;;
58137;SDS011;43955;47.362;18.930;2024-02-26T01:21:53;15.65;;;9.43;;
58137;SDS011;43955;47.362;18.930;2024-02-26T01:24:21;16.65;;;8.88;;
58137;SDS011;43955;47.362;18.930;2024-02-26T01:26:48;19.83;;;9.13;;
58137;SDS011;43955;47.362;18.930;2024-02-26T01:29:16;15.35;;;8.80;;
58137;SDS011;43955;47.362;18.930;2024-02-26T01:31:44;15.13;;;9.20;;
58137;SDS011;43955;47.362;18.930;2024-02-26T01:34:12;17.42;;;9.80;;
58137;SDS011;43955;47.362;18.930;2024-02-26T01:36:39;18.08;;;9.75;;
58137;SDS011;43955;47.362;18.930;2024-02-26T01:39:07;15.85;;;8.02;;
58137;SDS011;43955;47.362;18.930;2024-02-26T01:41:35;14.60;;;8.25;;
58137;SDS011;43955;47.362;18.930;2024-02-26T01:44:03;15.40;;;9.10;;
58137;SDS011;43955;47.362;18.930;2024-02-26T01:46:30;14.18;;;9.10;;
58137;SDS011;43955;47.362;18.930;2024-02-26T01:48:59;13.00;;;8.05;;
58137;SDS011;43955;47.362;18.930;2024-02-26T01:51:27;13.40;;;8.23;;
58137;SDS011;43955;47.362;18.930;2024-02-26T01:53:55;12.55;;;7.50;;
58137;SDS011;43955;47.362;18.930;2024-02-26T01:56:22;13.32;;;8.00;;
58137;SDS011;43955;47.362;18.930;2024-02-26T01:58:55;14.10;;;8.60;;
58137;SDS011;43955;47.362;18.930;2024-02-26T02:01:27;19.30;;;10.23;;
58137;SDS011;43955;47.362;18.930;2024-02-26T02:03:56;16.85;;;9.48;;
58137;SDS011;43955;47.362;18.930;2024-02-26T02:06:26;13.05;;;8.35;;
58137;SDS011;43955;47.362;18.930;2024-02-26T02:08:56;13.95;;;8.18;;
58137;SDS011;43955;47.362;18.930;2024-02-26T02:11:23;15.13;;;8.18;;
58137;SDS011;43955;47.362;18.930;2024-02-26T02:13:51;14.50;;;7.32;;
58137;SDS011;43955;47.362;18.930;2024-02-26T02:16:19;14.05;;;7.93;;
58137;SDS011;43955;47.362;18.930;2024-02-26T02:18:46;14.75;;;8.80;;
58137;SDS011;43955;47.362;18.930;2024-02-26T02:21:15;15.98;;;8.48;;
58137;SDS011;43955;47.362;18.930;2024-02-26T02:23:42;17.35;;;8.50;;
58137;SDS011;43955;47.362;18.930;2024-02-26T02:26:13;14.43;;;7.78;;
58137;SDS011;43955;47.362;18.930;2024-02-26T02:28:42;16.35;;;8.57;;
58137;SDS011;43955;47.362;18.930;2024-02-26T02:31:15;12.90;;;7.82;;
58137;SDS011;43955;47.362;18.930;2024-02-26T02:33:42;16.27;;;8.32;;
58137;SDS011;43955;47.362;18.930;2024-02-26T02:36:11;14.48;;;8.45;;
58137;SDS011;43955;47.362;18.930;2024-02-26T02:38:41;14.50;;;8.00;;
58137;SDS011;43955;47.362;18.930;2024-02-26T02:41:22;13.90;;;8.07;;
58137;SDS011;43955;47.362;18.930;2024-02-26T02:43:50;13.43;;;7.87;;
58137;SDS011;43955;47.362;18.930;2024-02-26T02:46:17;13.25;;;8.10;;
58137;SDS011;43955;47.362;18.930;2024-02-26T02:48:48;12.30;;;7.78;;
58137;SDS011;43955;47.362;18.930;2024-02-26T02:51:18;14.80;;;8.10;;
58137;SDS011;43955;47.362;18.930;2024-02-26T02:53:45;17.92;;;8.23;;
58137;SDS011;43955;47.362;18.930;2024-02-26T02:56:13;14.45;;;8.20;;
58137;SDS011;43955;47.362;18.930;2024-02-26T02:58:41;14.77;;;8.13;;
58137;SDS011;43955;47.362;18.930;2024-02-26T03:01:09;14.27;;;8.15;;
58137;SDS011;43955;47.362;18.930;2024-02-26T03:03:36;12.00;;;7.05;;
58137;SDS011;43955;47.362;18.930;2024-02-26T03:06:04;16.77;;;8.50;;
58137;SDS011;43955;47.362;18.930;2024-02-26T03:08:32;13.70;;;8.73;;
58137;SDS011;43955;47.362;18.930;2024-02-26T03:11:00;12.55;;;7.40;;
58137;SDS011;43955;47.362;18.930;2024-02-26T03:13:28;15.90;;;7.45;;
58137;SDS011;43955;47.362;18.930;2024-02-26T03:15:55;13.95;;;8.00;;
58137;SDS011;43955;47.362;18.930;2024-02-26T03:18:23;14.57;;;8.52;;
58137;SDS011;43955;47.362;18.930;2024-02-26T03:20:52;14.15;;;8.55;;
58137;SDS011;43955;47.362;18.930;2024-02-26T03:23:20;13.88;;;7.70;;
58137;SDS011;43955;47.362;18.930;2024-02-26T03:25:48;14.30;;;7.65;;
58137;SDS011;43955;47.362;18.930;2024-02-26T03:28:16;14.95;;;8.60;;
58137;SDS011;43955;47.362;18.930;2024-02-26T03:30:43;16.70;;;8.63;;
58137;SDS011;43955;47.362;18.930;2024-02-26T03:33:12;18.45;;;9.15;;
58137;SDS011;43955;47.362;18.930;2024-02-26T03:35:40;15.00;;;8.02;;
58137;SDS011;43955;47.362;18.930;2024-02-26T03:38:07;14.77;;;8.45;;
58137;SDS011;43955;47.362;18.930;2024-02-26T03:40:34;15.38;;;8.90;;
58137;SDS011;43955;47.362;18.930;2024-02-26T03:43:02;15.63;;;8.95;;
58137;SDS011;43955;47.362;18.930;2024-02-26T03:45:31;13.80;;;9.02;;
58137;SDS011;43955;47.362;18.930;2024-02-26T03:48:00;15.30;;;8.90;;
58137;SDS011;43955;47.362;18.930;2024-02-26T03:50:28;15.25;;;8.77;;
58137;SDS011;43955;47.362;18.930;2024-02-26T03:52:56;18.15;;;8.40;;
58137;SDS011;43955;47.362;18.930;2024-02-26T03:55:24;17.73;;;8.57;;
58137;SDS011;43955;47.362;18.930;2024-02-26T03:57:52;15.77;;;9.23;;
58137;SDS011;43955;47.362;18.930;2024-02-26T04:00:21;19.87;;;10.15;;
58137;SDS011;43955;47.362;18.930;2024-02-26T04:02:50;16.40;;;9.05;;
58137;SDS011;43955;47.362;18.930;2024-02-26T04:05:17;18.45;;;10.00;;
58137;SDS011;43955;47.362;18.930;2024-02-26T04:07:45;19.52;;;10.13;;
58137;SDS011;43955;47.362;18.930;2024-02-26T04:10:13;18.27;;;9.52;;
58137;SDS011;43955;47.362;18.930;2024-02-26T04:12:41;17.98;;;10.00;;
58137;SDS011;43955;47.362;18.930;2024-02-26T04:15:09;17.08;;;9.38;;
58137;SDS011;43955;47.362;18.930;2024-02-26T04:17:51;15.77;;;9.45;;
58137;SDS011;43955;47.362;18.930;2024-02-26T04:20:19;17.23;;;9.38;;
58137;SDS011;43955;47.362;18.930;2024-02-26T04:22:46;17.98;;;9.43;;
58137;SDS011;43955;47.362;18.930;2024-02-26T04:25:14;17.85;;;10.50;;
58137;SDS011;43955;47.362;18.930;2024-02-26T04:27:42;16.62;;;9.30;;
58137;SDS011;43955;47.362;18.930;2024-02-26T04:30:10;19.08;;;9.70;;
58137;SDS011;43955;47.362;18.930;2024-02-26T04:32:41;16.65;;;9.48;;
58137;SDS011;43955;47.362;18.930;2024-02-26T04:35:09;20.27;;;10.45;;
58137;SDS011;43955;47.362;18.930;2024-02-26T04:37:37;22.48;;;11.68;;
58137;SDS011;43955;47.362;18.930;2024-02-26T04:40:05;18.70;;;10.80;;
58137;SDS011;43955;47.362;18.930;2024-02-26T04:42:45;17.20;;;9.80;;
58137;SDS011;43955;47.362;18.930;2024-02-26T04:45:13;17.77;;;10.20;;
58137;SDS011;43955;47.362;18.930;2024-02-26T04:47:41;18.48;;;10.65;;
58137;SDS011;43955;47.362;18.930;2024-02-26T04:50:08;17.35;;;10.77;;
58137;SDS011;43955;47.362;18.930;2024-02-26T04:52:38;21.10;;;11.57;;
58137;SDS011;43955;47.362;18.930;2024-02-26T04:55:06;15.38;;;9.15;;
58137;SDS011;43955;47.362;18.930;2024-02-26T04:57:33;15.75;;;10.52;;
58137;SDS011;43955;47.362;18.930;2024-02-26T05:00:01;16.85;;;9.43;;
58137;SDS011;43955;47.362;18.930;2024-02-26T05:02:29;17.77;;;10.55;;
58137;SDS011;43955;47.362;18.930;2024-02-26T05:04:59;17.30;;;9.88;;
58137;SDS011;43955;47.362;18.930;2024-02-26T05:07:27;18.85;;;9.98;;
58137;SDS011;43955;47.362;18.930;2024-02-26T05:09:55;22.95;;;12.68;;
58137;SDS011;43955;47.362;18.930;2024-02-26T05:12:22;17.48;;;10.88;;
58137;SDS011;43955;47.362;18.930;2024-02-26T05:14:51;17.30;;;10.43;;
58137;SDS011;43955;47.362;18.930;2024-02-26T05:17:18;17.70;;;10.85;;
58137;SDS011;43955;47.362;18.930;2024-02-26T05:19:48;21.15;;;11.63;;
58137;SDS011;43955;47.362;18.930;2024-02-26T05:22:15;18.90;;;12.20;;
58137;SDS011;43955;47.362;18.930;2024-02-26T05:24:44;21.35;;;12.60;;
58137;SDS011;43955;47.362;18.930;2024-02-26T05:27:11;21.83;;;12.18;;
58137;SDS011;43955;47.362;18.930;2024-02-26T05:29:41;23.15;;;14.00;;
58137;SDS011;43955;47.362;18.930;2024-02-26T05:32:09;21.70;;;12.77;;
58137;SDS011;43955;47.362;18.930;2024-02-26T05:34:36;24.35;;;14.15;;
58137;SDS011;43955;47.362;18.930;2024-02-26T05:37:03;21.15;;;12.18;;
58137;SDS011;43955;47.362;18.930;2024-02-26T05:39:31;22.98;;;12.45;;
58137;SDS011;43955;47.362;18.930;2024-02-26T05:41:58;23.10;;;14.18;;
58137;SDS011;43955;47.362;18.930;2024-02-26T05:44:26;23.50;;;13.02;;
58137;SDS011;43955;47.362;18.930;2024-02-26T05:46:54;22.42;;;13.23;;
58137;SDS011;43955;47.362;18.930;2024-02-26T05:49:22;23.10;;;12.65;;
58137;SDS011;43955;47.362;18.930;2024-02-26T05:51:57;20.37;;;11.90;;
58137;SDS011;43955;47.362;18.930;2024-02-26T05:54:25;22.87;;;12.77;;
58137;SDS011;43955;47.362;18.930;2024-02-26T05:56:52;21.73;;;13.23;;
58137;SDS011;43955;47.362;18.930;2024-02-26T05:59:22;25.30;;;13.73;;
58137;SDS011;43955;47.362;18.930;2024-02-26T06:01:50;23.17;;;12.45;;
58137;SDS011;43955;47.362;18.930;2024-02-26T06:04:18;24.33;;;12.82;;
58137;SDS011;43955;47.362;18.930;2024-02-26T06:06:46;19.80;;;12.93;;
58137;SDS011;43955;47.362;18.930;2024-02-26T06:09:14;21.85;;;13.25;;
58137;SDS011;43955;47.362;18.930;2024-02-26T06:11:43;23.05;;;14.55;;
58137;SDS011;43955;47.362;18.930;2024-02-26T06:14:12;22.65;;;12.75;;
58137;SDS011;43955;47.362;18.930;2024-02-26T06:16:42;22.42;;;13.52;;
58137;SDS011;43955;47.362;18.930;2024-02-26T06:19:10;20.23;;;12.27;;
58137;SDS011;43955;47.362;18.930;2024-02-26T06:21:40;35.10;;;20.35;;
58137;SDS011;43955;47.362;18.930;2024-02-26T06:24:09;20.55;;;12.82;;
58137;SDS011;43955;47.362;18.930;2024-02-26T06:26:37;22.08;;;12.32;;
58137;SDS011;43955;47.362;18.930;2024-02-26T06:29:06;21.75;;;12.85;;
58137;SDS011;43955;47.362;18.930;2024-02-26T06:31:39;21.48;;;12.27;;
58137;SDS011;43955;47.362;18.930;2024-02-26T06:34:07;19.75;;;10.48;;
58137;SDS011;43955;47.362;18.930;2024-02-26T06:36:35;18.33;;;11.27;;
58137;SDS011;43955;47.362;18.930;2024-02-26T06:39:02;19.35;;;10.57;;
58137;SDS011;43955;47.362;18.930;2024-02-26T06:41:30;18.80;;;11.30;;
58137;SDS011;43955;47.362;18.930;2024-02-26T06:43:57;15.80;;;9.75;;
58137;SDS011;43955;47.362;18.930;2024-02-26T06:46:24;19.60;;;11.12;;
58137;SDS011;43955;47.362;18.930;2024-02-26T06:48:56;16.17;;;10.40;;
58137;SDS011;43955;47.362;18.930;2024-02-26T06:51:25;17.02;;;10.60;;
58137;SDS011;43955;47.362;18.930;2024-02-26T06:53:53;17.87;;;10.60;;
58137;SDS011;43955;47.362;18.930;2024-02-26T06:56:21;17.25;;;11.05;;
58137;SDS011;43955;47.362;18.930;2024-02-26T06:58:49;21.02;;;11.20;;
58137;SDS011;43955;47.362;18.930;2024-02-26T07:01:17;17.60;;;11.00;;
58137;SDS011;43955;47.362;18.930;2024-02-26T07:03:45;18.17;;;11.30;;
58137;SDS011;43955;47.362;18.930;2024-02-26T07:06:13;22.13;;;10.82;;
58137;SDS011;43955;47.362;18.930;2024-02-26T07:08:41;20.55;;;10.32;;
58137;SDS011;43955;47.362;18.930;2024-02-26T07:11:10;16.30;;;9.45;;
58137;SDS011;43955;47.362;18.930;2024-02-26T07:13:37;17.35;;;10.32;;
58137;SDS011;43955;47.362;18.930;2024-02-26T07:16:05;18.30;;;10.40;;
58137;SDS011;43955;47.362;18.930;2024-02-26T07:18:33;17.02;;;10.13;;
58137;SDS011;43955;47.362;18.930;2024-02-26T07:21:03;20.77;;;10.32;;
58137;SDS011;43955;47.362;18.930;2024-02-26T07:23:32;17.75;;;10.07;;
58137;SDS011;43955;47.362;18.930;2024-02-26T07:26:00;15.85;;;9.10;;
58137;SDS011;43955;47.362;18.930;2024-02-26T07:28:27;18.05;;;10.15;;
58137;SDS011;43955;47.362;18.930;2024-02-26T07:30:55;16.20;;;9.25;;
58137;SDS011;43955;47.362;18.930;2024-02-26T07:33:23;16.02;;;9.27;;
58137;SDS011;43955;47.362;18.930;2024-02-26T07:35:51;14.60;;;9.43;;
58137;SDS011;43955;47.362;18.930;2024-02-26T07:38:20;13.30;;;8.48;;
58137;SDS011;43955;47.362;18.930;2024-02-26T07:41:05;14.73;;;8.50;;
58137;SDS011;43955;47.362;18.930;2024-02-26T07:43:33;15.65;;;9.15;;
58137;SDS011;43955;47.362;18.930;2024-02-26T07:46:00;15.30;;;8.88;;
58137;SDS011;43955;47.362;18.930;2024-02-26T07:48:27;13.75;;;8.13;;
58137;SDS011;43955;47.362;18.930;2024-02-26T07:50:56;17.20;;;10.02;;
58137;SDS011;43955;47.362;18.930;2024-02-26T07:53:27;15.23;;;9.55;;
58137;SDS011;43955;47.362;18.930;2024-02-26T07:55:55;17.73;;;8.57;;
58137;SDS011;43955;47.362;18.930;2024-02-26T07:58:25;17.90;;;10.70;;
58137;SDS011;43955;47.362;18.930;2024-02-26T08:00:54;14.98;;;8.38;;
58137;SDS011;43955;47.362;18.930;2024-02-26T08:03:22;13.45;;;8.75;;
58137;SDS011;43955;47.362;18.930;2024-02-26T08:05:51;14.02;;;8.60;;
58137;SDS011;43955;47.362;18.930;2024-02-26T08:08:19;12.80;;;8.07;;
58137;SDS011;43955;47.362;18.930;2024-02-26T08:10:46;14.52;;;7.85;;
58137;SDS011;43955;47.362;18.930;2024-02-26T08:13:14;17.23;;;8.43;;
58137;SDS011;43955;47.362;18.930;2024-02-26T08:15:41;13.32;;;7.90;;
58137;SDS011;43955;47.362;18.930;2024-02-26T08:18:10;14.45;;;8.00;;
58137;SDS011;43955;47.362;18.930;2024-02-26T08:20:39;12.88;;;8.50;;
58137;SDS011;43955;47.362;18.930;2024-02-26T08:23:06;10.95;;;7.75;;
58137;SDS011;43955;47.362;18.930;2024-02-26T08:25:34;15.15;;;9.32;;
58137;SDS011;43955;47.362;18.930;2024-02-26T08:28:02;15.10;;;9.25;;
58137;SDS011;43955;47.362;18.930;2024-02-26T08:30:30;17.35;;;8.95;;
58137;SDS011;43955;47.362;18.930;2024-02-26T08:32:58;13.98;;;8.88;;
58137;SDS011;43955;47.362;18.930;2024-02-26T08:35:28;12.25;;;7.95;;
58137;SDS011;43955;47.362;18.930;2024-02-26T08:37:56;14.90;;;8.00;;
58137;SDS011;43955;47.362;18.930;2024-02-26T08:40:23;15.07;;;8.45;;
58137;SDS011;43955;47.362;18.930;2024-02-26T08:42:50;15.27;;;9.57;;
58137;SDS011;43955;47.362;18.930;2024-02-26T08:45:18;14.48;;;8.90;;
58137;SDS011;43955;47.362;18.930;2024-02-26T08:47:45;12.68;;;8.52;;
58137;SDS011;43955;47.362;18.930;2024-02-26T08:50:13;14.93;;;8.38;;
58137;SDS011;43955;47.362;18.930;2024-02-26T08:52:41;12.57;;;7.80;;
58137;SDS011;43955;47.362;18.930;2024-02-26T08:55:09;11.75;;;8.25;;
58137;SDS011;43955;47.362;18.930;2024-02-26T08:57:36;15.00;;;7.93;;
58137;SDS011;43955;47.362;18.930;2024-02-26T09:00:05;12.85;;;9.43;;
58137;SDS011;43955;47.362;18.930;2024-02-26T09:02:34;13.48;;;8.40;;
58137;SDS011;43955;47.362;18.930;2024-02-26T09:05:02;13.75;;;8.02;;
58137;SDS011;43955;47.362;18.930;2024-02-26T09:07:31;12.65;;;6.97;;
58137;SDS011;43955;47.362;18.930;2024-02-26T09:09:58;12.88;;;7.82;;
58137;SDS011;43955;47.362;18.930;2024-02-26T09:12:26;14.05;;;8.30;;
58137;SDS011;43955;47.362;18.930;2024-02-26T09:14:56;17.37;;;10.68;;
58137;SDS011;43955;47.362;18.930;2024-02-26T09:17:26;15.32;;;9.45;;
58137;SDS011;43955;47.362;18.930;2024-02-26T09:19:53;14.38;;;8.80;;
58137;SDS011;43955;47.362;18.930;2024-02-26T09:22:21;15.50;;;8.98;;
58137;SDS011;43955;47.362;18.930;2024-02-26T09:24:49;14.40;;;8.80;;
58137;SDS011;43955;47.362;18.930;2024-02-26T09:27:19;12.82;;;8.77;;
58137;SDS011;43955;47.362;18.930;2024-02-26T09:29:49;13.70;;;8.52;;
58137;SDS011;43955;47.362;18.930;2024-02-26T09:32:19;13.35;;;8.75;;
58137;SDS011;43955;47.362;18.930;2024-02-26T09:34:49;14.23;;;8.88;;
58137;SDS011;43955;47.362;18.930;2024-02-26T09:37:18;14.98;;;9.40;;
58137;SDS011;43955;47.362;18.930;2024-02-26T09:39:48;15.00;;;9.07;;
58137;SDS011;43955;47.362;18.930;2024-02-26T09:42:17;12.95;;;9.65;;
58137;SDS011;43955;47.362;18.930;2024-02-26T09:44:47;13.57;;;9.13;;
58137;SDS011;43955;47.362;18.930;2024-02-26T09:47:16;14.93;;;9.30;;
58137;SDS011;43955;47.362;18.930;2024-02-26T09:49:44;18.05;;;8.50;;
58137;SDS011;43955;47.362;18.930;2024-02-26T09:52:14;15.05;;;8.50;;
58137;SDS011;43955;47.362;18.930;2024-02-26T09:54:48;14.63;;;9.23;;
58137;SDS011;43955;47.362;18.930;2024-02-26T09:57:16;14.02;;;9.25;;
58137;SDS011;43955;47.362;18.930;2024-02-26T09:59:44;14.73;;;9.80;;
58137;SDS011;43955;47.362;18.930;2024-02-26T10:02:14;14.93;;;9.73;;
58137;SDS011;43955;47.362;18.930;2024-02-26T10:04:41;17.30;;;8.85;;
58137;SDS011;43955;47.362;18.930;2024-02-26T10:07:15;15.75;;;9.93;;
58137;SDS011;43955;47.362;18.930;2024-02-26T10:09:43;15.85;;;10.20;;
58137;SDS011;43955;47.362;18.930;2024-02-26T10:12:10;18.75;;;11.10;;
58137;SDS011;43955;47.362;18.930;2024-02-26T10:14:43;15.50;;;9.23;;
58137;SDS011;43955;47.362;18.930;2024-02-26T10:17:11;16.77;;;10.13;;
58137;SDS011;43955;47.362;18.930;2024-02-26T10:19:39;19.62;;;9.55;;
58137;SDS011;43955;47.362;18.930;2024-02-26T10:22:07;19.70;;;9.02;;
58137;SDS011;43955;47.362;18.930;2024-02-26T10:24:37;15.63;;;8.68;;
58137;SDS011;43955;47.362;18.930;2024-02-26T10:27:04;14.85;;;8.13;;
58137;SDS011;43955;47.362;18.930;2024-02-26T10:29:35;14.60;;;8.02;;
58137;SDS011;43955;47.362;18.930;2024-02-26T10:32:02;17.00;;;9.43;;
58137;SDS011;43955;47.362;18.930;2024-02-26T10:34:32;15.57;;;9.57;;
58137;SDS011;43955;47.362;18.930;2024-02-26T10:37:01;14.77;;;9.80;;
58137;SDS011;43955;47.362;18.930;2024-02-26T10:39:28;16.20;;;9.30;;
58137;SDS011;43955;47.362;18.930;2024-02-26T10:41:55;15.43;;;9.18;;
58137;SDS011;43955;47.362;18.930;2024-02-26T10:44:23;23.65;;;9.15;;
58137;SDS011;43955;47.362;18.930;2024-02-26T10:46:53;17.08;;;9.27;;
58137;SDS011;43955;47.362;18.930;2024-02-26T10:49:22;16.33;;;9.15;;
58137;SDS011;43955;47.362;18.930;2024-02-26T10:51:56;16.12;;;9.65;;
58137;SDS011;43955;47.362;18.930;2024-02-26T10:54:29;17.83;;;9.32;;
58137;SDS011;43955;47.362;18.930;2024-02-26T10:56:58;15.50;;;8.07;;
58137;SDS011;43955;47.362;18.930;2024-02-26T10:59:28;12.43;;;8.20;;
58137;SDS011;43955;47.362;18.930;2024-02-26T11:01:59;19.27;;;8.70;;
58137;SDS011;43955;47.362;18.930;2024-02-26T11:04:26;14.52;;;8.27;;
58137;SDS011;43955;47.362;18.930;2024-02-26T11:06:56;16.05;;;8.32;;
58137;SDS011;43955;47.362;18.930;2024-02-26T11:09:26;19.77;;;7.90;;
58137;SDS011;43955;47.362;18.930;2024-02-26T11:11:54;14.75;;;8.50;;
58137;SDS011;43955;47.362;18.930;2024-02-26T11:14:22;16.95;;;9.60;;
58137;SDS011;43955;47.362;18.930;2024-02-26T11:16:54;18.15;;;9.60;;
58137;SDS011;43955;47.362;18.930;2024-02-26T11:19:22;16.95;;;8.35;;
58137;SDS011;43955;47.362;18.930;2024-02-26T11:21:52;19.73;;;8.80;;
58137;SDS011;43955;47.362;18.930;2024-02-26T11:24:19;14.15;;;8.57;;
58137;SDS011;43955;47.362;18.930;2024-02-26T11:26:48;13.48;;;8.60;;
58137;SDS011;43955;47.362;18.930;2024-02-26T11:29:27;21.33;;;9.10;;
58137;SDS011;43955;47.362;18.930;2024-02-26T11:32:06;17.17;;;8.20;;
58137;SDS011;43955;47.362;18.930;2024-02-26T11:34:33;13.88;;;8.80;;
58137;SDS011;43955;47.362;18.930;2024-02-26T11:37:13;14.48;;;8.52;;
58137;SDS011;43955;47.362;18.930;2024-02-26T11:39:45;13.80;;;8.65;;
58137;SDS011;43955;47.362;18.930;2024-02-26T11:42:15;22.80;;;7.90;;
58137;SDS011;43955;47.362;18.930;2024-02-26T11:44:43;19.17;;;8.07;;
58137;SDS011;43955;47.362;18.930;2024-02-26T11:47:23;15.18;;;6.70;;
58137;SDS011;43955;47.362;18.930;2024-02-26T11:49:50;13.18;;;6.57;;
58137;SDS011;43955;47.362;18.930;2024-02-26T11:52:20;15.32;;;8.27;;
58137;SDS011;43955;47.362;18.930;2024-02-26T11:57:29;13.15;;;6.82;;
58137;SDS011;43955;47.362;18.930;2024-02-26T12:02:44;11.55;;;5.40;;
58137;SDS011;43955;47.362;18.930;2024-02-26T12:05:20;11.85;;;5.72;;
58137;SDS011;43955;47.362;18.930;2024-02-26T12:07:59;10.02;;;5.60;;
58137;SDS011;43955;47.362;18.930;2024-02-26T12:10:38;15.20;;;6.43;;
58137;SDS011;43955;47.362;18.930;2024-02-26T12:13:12;13.20;;;5.72;;
58137;SDS011;43955;47.362;18.930;2024-02-26T12:15:57;17.42;;;6.50;;
58137;SDS011;43955;47.362;18.930;2024-02-26T12:18:27;12.75;;;6.20;;
58137;SDS011;43955;47.362;18.930;2024-02-26T12:21:01;8.60;;;5.70;;
58137;SDS011;43955;47.362;18.930;2024-02-26T12:23:31;11.50;;;5.75;;
58137;SDS011;43955;47.362;18.930;2024-02-26T12:25:59;12.80;;;5.95;;
58137;SDS011;43955;47.362;18.930;2024-02-26T12:28:31;24.87;;;7.35;;
58137;SDS011;43955;47.362;18.930;2024-02-26T12:30:58;10.50;;;5.15;;
58137;SDS011;43955;47.362;18.930;2024-02-26T12:33:27;7.62;;;5.32;;
58137;SDS011;43955;47.362;18.930;2024-02-26T12:35:56;9.73;;;5.55;;
58137;SDS011;43955;47.362;18.930;2024-02-26T12:38:26;9.45;;;4.57;;
58137;SDS011;43955;47.362;18.930;2024-02-26T12:40:53;9.80;;;4.82;;
58137;SDS011;43955;47.362;18.930;2024-02-26T12:43:20;6.97;;;4.75;;
58137;SDS011;43955;47.362;18.930;2024-02-26T12:45:48;10.73;;;5.62;;
58137;SDS011;43955;47.362;18.930;2024-02-26T12:48:15;10.82;;;4.60;;
58137;SDS011;43955;47.362;18.930;2024-02-26T12:50:46;7.70;;;4.65;;
58137;SDS011;43955;47.362;18.930;2024-02-26T12:53:16;9.80;;;5.15;;
58137;SDS011;43955;47.362;18.930;2024-02-26T12:55:43;7.80;;;3.87;;
58137;SDS011;43955;47.362;18.930;2024-02-26T12:58:10;9.68;;;3.70;;
58137;SDS011;43955;47.362;18.930;2024-02-26T13:00:52;5.30;;;2.12;;
58137;SDS011;43955;47.362;18.930;2024-02-26T13:03:20;7.62;;;2.90;;
58137;SDS011;43955;47.362;18.930;2024-02-26T13:05:48;5.40;;;2.60;;
58137;SDS011;43955;47.362;18.930;2024-02-26T13:08:19;5.30;;;3.00;;
58137;SDS011;43955;47.362;18.930;2024-02-26T13:10:48;4.68;;;2.53;;
58137;SDS011;43955;47.362;18.930;2024-02-26T13:13:15;5.75;;;2.33;;
58137;SDS011;43955;47.362;18.930;2024-02-26T13:15:45;4.57;;;2.30;;
58137;SDS011;43955;47.362;18.930;2024-02-26T13:18:15;5.07;;;2.70;;
58137;SDS011;43955;47.362;18.930;2024-02-26T13:20:42;5.20;;;2.85;;
58137;SDS011;43955;47.362;18.930;2024-02-26T13:23:11;4.25;;;2.47;;
58137;SDS011;43955;47.362;18.930;2024-02-26T13:25:39;4.90;;;2.92;;
58137;SDS011;43955;47.362;18.930;2024-02-26T13:28:17;10.40;;;4.07;;
58137;SDS011;43955;47.362;18.930;2024-02-26T13:30:52;4.72;;;2.92;;
58137;SDS011;43955;47.362;18.930;2024-02-26T13:33:20;4.68;;;3.40;;
58137;SDS011;43955;47.362;18.930;2024-02-26T13:35:48;13.10;;;4.15;;
58137;SDS011;43955;47.362;18.930;2024-02-26T13:38:16;5.80;;;2.55;;
58137;SDS011;43955;47.362;18.930;2024-02-26T13:40:45;7.62;;;2.40;;
58137;SDS011;43955;47.362;18.930;2024-02-26T13:43:12;5.32;;;2.47;;
58137;SDS011;43955;47.362;18.930;2024-02-26T13:45:40;5.40;;;2.42;;
58137;SDS011;43955;47.362;18.930;2024-02-26T13:48:09;6.85;;;2.33;;
58137;SDS011;43955;47.362;18.930;2024-02-26T13:50:40;17.80;;;3.03;;
58137;SDS011;43955;47.362;18.930;2024-02-26T13:53:09;8.15;;;2.65;;
58137;SDS011;43955;47.362;18.930;2024-02-26T13:55:36;7.47;;;2.97;;
58137;SDS011;43955;47.362;18.930;2024-02-26T13:58:11;15.30;;;4.10;;
58137;SDS011;43955;47.362;18.930;2024-02-26T14:00:40;9.30;;;2.92;;
58137;SDS011;43955;47.362;18.930;2024-02-26T14:03:09;9.43;;;2.20;;
58137;SDS011;43955;47.362;18.930;2024-02-26T14:05:37;16.25;;;3.12;;
58137;SDS011;43955;47.362;18.930;2024-02-26T14:08:04;6.70;;;3.45;;
58137;SDS011;43955;47.362;18.930;2024-02-26T14:10:33;16.10;;;4.75;;
58137;SDS011;43955;47.362;18.930;2024-02-26T14:13:01;9.52;;;4.12;;
58137;SDS011;43955;47.362;18.930;2024-02-26T14:15:29;8.77;;;3.95;;
58137;SDS011;43955;47.362;18.930;2024-02-26T14:17:56;6.32;;;4.07;;
58137;SDS011;43955;47.362;18.930;2024-02-26T14:20:25;7.03;;;4.07;;
58137;SDS011;43955;47.362;18.930;2024-02-26T14:22:52;8.00;;;4.80;;
58137;SDS011;43955;47.362;18.930;2024-02-26T14:25:23;10.88;;;5.22;;
58137;SDS011;43955;47.362;18.930;2024-02-26T14:27:55;16.83;;;11.05;;
58137;SDS011;43955;47.362;18.930;2024-02-26T14:30:25;9.77;;;4.95;;
58137;SDS011;43955;47.362;18.930;2024-02-26T14:32:53;7.50;;;4.50;;